Time;durP1;ratioP1;P1;durP2;ratioP2;P2;SDS_P1;SDS_P2;PMS_P1;PMS_P2;Temp;Humidity;BMP_temperature;BMP_pressure;BME280_temperature;BME280_humidity;BME280_pressure;Samples;Min_cycle;Max_cycle;Signal;HPM_P1;HPM_P2
2023/09/10 00:01:09;;;;;;;1.95;1.00;;;17.50;99.90;;;;;;5067036;28;20115;-70
2023/09/10 00:03:35;;;;;;;1.92;1.13;;;17.40;99.90;;;;;;5062537;28;20098;-70
2023/09/10 00:06:07;;;;;;;2.83;0.88;;;17.40;99.90;;;;;;5094851;28;20048;-70
2023/09/10 00:08:34;;;;;;;1.77;0.90;;;17.40;99.90;;;;;;5061451;28;20045;-70
2023/09/10 00:11:00;;;;;;;2.03;1.33;;;17.40;99.90;;;;;;5063697;28;20044;-70
2023/09/10 00:13:26;;;;;;;1.33;0.75;;;17.30;99.90;;;;;;5062026;28;20174;-70
2023/09/10 00:15:53;;;;;;;1.75;0.90;;;17.30;99.90;;;;;;5061289;28;20049;-70
2023/09/10 00:18:20;;;;;;;2.38;1.30;;;17.30;99.90;;;;;;5062239;28;20076;-70
2023/09/10 00:20:46;;;;;;;2.15;1.00;;;17.30;99.90;;;;;;5061711;28;20043;-70
2023/09/10 00:23:13;;;;;;;1.73;0.70;;;17.30;99.90;;;;;;5064103;28;20048;-70
2023/09/10 00:25:38;;;;;;;1.48;0.85;;;17.30;99.90;;;;;;5065613;28;20044;-70
2023/09/10 00:28:04;;;;;;;1.40;0.90;;;17.20;99.90;;;;;;5062114;28;20396;-70
2023/09/10 00:30:30;;;;;;;1.63;0.85;;;17.10;99.90;;;;;;5058065;28;20044;-70
2023/09/10 00:32:56;;;;;;;1.20;0.70;;;17.10;99.90;;;;;;5065271;28;20043;-70
2023/09/10 00:35:21;;;;;;;1.73;0.77;;;17.10;99.90;;;;;;5039688;28;20037;-71
2023/09/10 00:37:47;;;;;;;1.02;0.82;;;17.00;99.90;;;;;;5059145;28;20132;-70
2023/09/10 00:40:13;;;;;;;2.90;1.13;;;17.00;99.90;;;;;;5060153;28;20040;-71
2023/09/10 00:42:39;;;;;;;3.22;0.85;;;17.00;99.90;;;;;;5065232;28;20074;-70
2023/09/10 00:45:10;;;;;;;1.85;1.23;;;17.00;99.90;;;;;;5057808;28;20424;-70
2023/09/10 00:47:40;;;;;;;2.72;1.38;;;16.90;99.90;;;;;;5060635;28;20025;-71
2023/09/10 00:50:09;;;;;;;2.17;1.10;;;16.90;99.90;;;;;;5065118;28;20149;-70
2023/09/10 00:52:36;;;;;;;2.50;1.17;;;16.90;99.90;;;;;;5061807;28;20049;-71
2023/09/10 00:55:04;;;;;;;2.30;1.33;;;16.90;99.90;;;;;;5055727;28;20082;-70
2023/09/10 00:57:29;;;;;;;1.85;1.05;;;16.90;99.90;;;;;;5060747;28;20430;-70
2023/09/10 00:59:56;;;;;;;1.67;1.13;;;16.90;99.90;;;;;;5061956;28;20040;-70
2023/09/10 01:02:22;;;;;;;2.10;1.17;;;16.90;99.90;;;;;;5060874;28;20501;-70
2023/09/10 01:04:48;;;;;;;2.30;1.25;;;16.80;99.90;;;;;;5062476;28;20036;-70
2023/09/10 01:07:14;;;;;;;1.92;1.38;;;16.80;99.90;;;;;;5089884;28;20291;-70
2023/09/10 01:09:40;;;;;;;2.80;1.45;;;16.80;99.90;;;;;;5097696;28;20036;-70
2023/09/10 01:12:19;;;;;;;1.42;0.98;;;16.80;99.90;;;;;;5058243;28;20040;-70
2023/09/10 01:15:07;;;;;;;2.17;1.15;;;16.80;99.90;;;;;;5078700;28;20082;-70
2023/09/10 01:17:52;;;;;;;1.83;0.98;;;16.80;99.90;;;;;;5060106;28;20587;-70
2023/09/10 01:20:49;;;;;;;1.83;1.10;;;16.80;99.90;;;;;;5059985;28;20071;-70
2023/09/10 01:23:31;;;;;;;3.03;1.63;;;16.80;99.90;;;;;;5053972;28;20053;-70
2023/09/10 01:25:56;;;;;;;2.97;1.30;;;16.80;99.90;;;;;;5062209;28;20048;-70
2023/09/10 01:28:22;;;;;;;2.30;1.60;;;16.80;99.90;;;;;;5063063;28;20037;-70
2023/09/10 01:30:48;;;;;;;1.90;1.20;;;16.70;99.90;;;;;;5060994;28;20029;-70
2023/09/10 01:33:23;;;;;;;1.13;0.80;;;16.70;99.90;;;;;;5056737;28;20043;-70
2023/09/10 01:36:07;;;;;;;1.98;1.13;;;16.70;99.90;;;;;;5058439;28;20111;-71
2023/09/10 01:38:43;;;;;;;2.58;1.25;;;16.70;99.90;;;;;;5061262;28;20044;-70
2023/09/10 01:41:13;;;;;;;3.45;1.65;;;16.70;99.90;;;;;;5060414;28;20052;-70
2023/09/10 01:43:40;;;;;;;1.95;1.10;;;16.70;99.90;;;;;;5043127;28;20102;-70
2023/09/10 01:46:07;;;;;;;3.00;1.60;;;16.60;99.90;;;;;;5065324;28;20037;-70
2023/09/10 01:48:33;;;;;;;2.50;1.45;;;16.60;99.90;;;;;;5060271;28;20037;-70
2023/09/10 01:50:59;;;;;;;1.75;1.30;;;16.60;99.90;;;;;;5059782;28;20068;-70
2023/09/10 01:53:25;;;;;;;2.08;1.45;;;16.60;99.90;;;;;;5058712;28;20080;-70
2023/09/10 01:55:51;;;;;;;1.75;1.13;;;16.60;99.90;;;;;;5040572;28;20072;-70
2023/09/10 01:58:16;;;;;;;1.58;1.17;;;16.60;99.90;;;;;;5091140;28;20052;-70
2023/09/10 02:00:43;;;;;;;2.60;1.67;;;16.60;99.90;;;;;;5046392;28;20052;-70
2023/09/10 02:03:09;;;;;;;2.50;1.50;;;16.60;99.90;;;;;;5057233;28;20032;-70
2023/09/10 02:05:35;;;;;;;2.58;1.60;;;16.60;99.90;;;;;;5061540;28;20048;-70
2023/09/10 02:08:00;;;;;;;3.05;1.40;;;16.50;99.90;;;;;;5061703;28;20052;-69
2023/09/10 02:10:27;;;;;;;1.88;1.08;;;16.50;99.90;;;;;;5059817;28;20051;-69
2023/09/10 02:12:53;;;;;;;1.85;1.17;;;16.50;99.90;;;;;;5093426;28;20060;-70
2023/09/10 02:15:19;;;;;;;2.25;1.00;;;16.50;99.90;;;;;;5060320;28;20065;-70
2023/09/10 02:17:44;;;;;;;1.90;1.00;;;16.50;99.90;;;;;;5098710;28;20040;-70
2023/09/10 02:20:11;;;;;;;1.63;1.05;;;16.40;99.90;;;;;;5054569;28;20025;-69
2023/09/10 02:22:38;;;;;;;4.30;1.48;;;16.40;99.90;;;;;;5057866;28;20037;-70
2023/09/10 02:25:04;;;;;;;2.30;1.55;;;16.40;99.90;;;;;;5059468;28;20032;-69
2023/09/10 02:27:31;;;;;;;2.40;1.38;;;16.30;99.90;;;;;;5055523;28;20058;-70
2023/09/10 02:29:57;;;;;;;2.50;1.40;;;16.30;99.90;;;;;;5091693;28;20048;-70
2023/09/10 02:32:23;;;;;;;2.35;1.13;;;16.30;99.90;;;;;;5057988;28;20036;-70
2023/09/10 02:34:51;;;;;;;2.22;1.20;;;16.30;99.90;;;;;;5056638;28;20140;-69
2023/09/10 02:37:17;;;;;;;1.73;1.27;;;16.30;99.90;;;;;;5046124;28;20052;-69
2023/09/10 02:39:43;;;;;;;2.92;1.55;;;16.30;99.90;;;;;;5095384;28;20070;-70
2023/09/10 02:42:09;;;;;;;2.55;1.45;;;16.30;99.90;;;;;;5059225;28;20044;-69
2023/09/10 02:44:36;;;;;;;1.65;0.88;;;16.30;99.90;;;;;;5058159;28;20057;-70
2023/09/10 02:47:02;;;;;;;1.60;1.27;;;16.30;99.90;;;;;;5061593;28;20468;-69
2023/09/10 02:49:28;;;;;;;1.88;1.13;;;16.30;99.90;;;;;;5051323;28;20041;-69
2023/09/10 02:51:54;;;;;;;2.75;1.30;;;16.20;99.90;;;;;;5062237;28;20037;-69
2023/09/10 02:54:20;;;;;;;2.50;1.48;;;16.20;99.90;;;;;;5059793;28;20503;-69
2023/09/10 02:56:46;;;;;;;1.90;0.98;;;16.20;99.90;;;;;;5059262;28;20045;-70
2023/09/10 02:59:26;;;;;;;2.05;1.40;;;16.20;99.90;;;;;;5056971;28;20044;-70
2023/09/10 03:01:52;;;;;;;2.78;1.13;;;16.20;99.90;;;;;;5060023;28;20125;-70
2023/09/10 03:04:18;;;;;;;1.88;1.17;;;16.20;99.90;;;;;;5092940;28;20041;-70
2023/09/10 03:06:49;;;;;;;2.03;1.27;;;16.20;99.90;;;;;;5059574;28;20063;-70
2023/09/10 03:09:15;;;;;;;2.42;1.63;;;16.10;99.90;;;;;;5057152;28;20041;-69
2023/09/10 03:11:42;;;;;;;2.08;1.23;;;16.20;99.90;;;;;;5062960;28;20048;-69
2023/09/10 03:14:08;;;;;;;2.25;1.08;;;16.20;99.90;;;;;;5060595;28;20032;-70
2023/09/10 03:16:38;;;;;;;1.60;0.80;;;16.20;99.90;;;;;;5057369;28;20043;-70
2023/09/10 03:19:04;;;;;;;2.38;1.13;;;16.20;99.90;;;;;;5058684;28;20166;-69
2023/09/10 03:21:30;;;;;;;2.53;1.73;;;16.20;99.90;;;;;;5059132;28;20436;-69
2023/09/10 03:23:56;;;;;;;4.03;1.52;;;16.10;99.90;;;;;;5059311;28;20543;-69
2023/09/10 03:26:22;;;;;;;2.22;1.35;;;16.10;99.90;;;;;;5058834;28;20382;-70
2023/09/10 03:28:48;;;;;;;1.75;0.90;;;16.10;99.90;;;;;;5062993;28;20048;-70
2023/09/10 03:31:13;;;;;;;2.10;1.00;;;16.10;99.90;;;;;;5055868;28;20033;-70
2023/09/10 03:33:40;;;;;;;1.13;0.77;;;16.10;99.90;;;;;;5044237;28;20037;-70
2023/09/10 03:36:06;;;;;;;2.08;1.13;;;16.00;99.90;;;;;;5060076;28;20033;-70
2023/09/10 03:38:32;;;;;;;3.35;1.00;;;16.00;99.90;;;;;;5047310;28;20123;-70
2023/09/10 03:40:57;;;;;;;2.15;1.20;;;16.10;99.90;;;;;;5057267;28;20036;-69
2023/09/10 03:43:23;;;;;;;1.35;1.02;;;16.00;99.90;;;;;;5058483;28;20084;-70
2023/09/10 03:45:49;;;;;;;2.88;1.58;;;16.00;99.90;;;;;;5056329;28;20051;-70
2023/09/10 03:48:15;;;;;;;2.10;1.23;;;16.10;99.90;;;;;;5060242;28;20052;-70
2023/09/10 03:50:41;;;;;;;2.60;1.30;;;16.10;99.90;;;;;;5063311;28;20068;-70
2023/09/10 03:53:07;;;;;;;2.53;1.23;;;16.00;99.90;;;;;;5061637;28;20494;-70
2023/09/10 03:55:33;;;;;;;1.33;0.73;;;16.00;99.90;;;;;;5058113;28;20067;-70
2023/09/10 03:57:58;;;;;;;0.95;0.82;;;16.00;99.90;;;;;;5065009;28;20097;-70
2023/09/10 04:00:24;;;;;;;3.65;1.25;;;16.00;99.90;;;;;;5062282;28;20496;-70
2023/09/10 04:02:50;;;;;;;2.47;1.27;;;16.00;99.90;;;;;;5064892;28;20049;-70
2023/09/10 04:05:16;;;;;;;1.30;1.02;;;16.00;99.90;;;;;;5064705;28;20382;-70
2023/09/10 04:07:42;;;;;;;3.20;1.65;;;15.90;99.90;;;;;;5095141;28;20067;-70
2023/09/10 04:10:08;;;;;;;2.30;1.17;;;15.90;99.90;;;;;;5066270;28;20456;-70
2023/09/10 04:12:35;;;;;;;2.58;1.42;;;15.90;99.90;;;;;;5064065;28;20078;-70
2023/09/10 04:15:00;;;;;;;1.98;1.25;;;15.90;99.90;;;;;;5068394;28;20045;-70
2023/09/10 04:17:29;;;;;;;1.85;1.02;;;15.90;99.90;;;;;;5063637;28;20053;-70
2023/09/10 04:19:56;;;;;;;2.63;1.00;;;15.90;99.90;;;;;;5093329;28;20080;-70
2023/09/10 04:22:21;;;;;;;1.10;0.82;;;15.80;99.90;;;;;;5050116;28;20045;-70
2023/09/10 04:24:47;;;;;;;3.17;1.73;;;15.80;99.90;;;;;;5088819;28;20128;-70
2023/09/10 04:27:13;;;;;;;2.72;1.33;;;15.80;99.90;;;;;;5062769;28;20029;-70
2023/09/10 04:29:38;;;;;;;1.70;0.95;;;15.80;99.90;;;;;;5094730;28;20514;-70
2023/09/10 04:32:04;;;;;;;1.42;0.80;;;15.80;99.90;;;;;;5062123;28;20043;-71
2023/09/10 04:34:30;;;;;;;3.00;1.00;;;15.80;99.90;;;;;;5057246;28;20045;-70
2023/09/10 04:36:56;;;;;;;1.95;1.17;;;15.80;99.90;;;;;;5058820;28;20040;-70
2023/09/10 04:39:22;;;;;;;1.63;0.98;;;15.80;99.90;;;;;;5060072;28;20127;-69
2023/09/10 04:41:47;;;;;;;1.33;0.88;;;15.80;99.90;;;;;;5092136;28;20047;-69
2023/09/10 04:44:13;;;;;;;1.98;1.35;;;15.80;99.90;;;;;;5057715;28;20420;-69
2023/09/10 04:46:39;;;;;;;3.50;1.58;;;15.80;99.90;;;;;;5060396;28;20091;-69
2023/09/10 04:49:05;;;;;;;1.63;1.02;;;15.80;99.90;;;;;;5061275;28;20033;-69
2023/09/10 04:51:31;;;;;;;2.28;1.40;;;15.80;99.90;;;;;;5057899;28;20625;-69
2023/09/10 04:53:56;;;;;;;2.22;1.13;;;15.80;99.90;;;;;;5062828;28;20044;-70
2023/09/10 04:56:22;;;;;;;2.42;1.30;;;15.80;99.90;;;;;;5067853;28;20186;-70
2023/09/10 04:58:48;;;;;;;3.65;1.45;;;15.80;99.90;;;;;;5060069;28;20049;-70
2023/09/10 05:01:14;;;;;;;1.60;0.95;;;15.80;99.90;;;;;;5062890;28;20041;-70
2023/09/10 05:03:43;;;;;;;2.83;1.38;;;15.80;99.90;;;;;;5061670;28;20044;-70
2023/09/10 05:06:09;;;;;;;2.00;1.13;;;15.70;99.90;;;;;;5063752;28;20489;-70
2023/09/10 05:08:35;;;;;;;3.38;2.20;;;15.70;99.90;;;;;;5061116;28;20041;-69
2023/09/10 05:11:02;;;;;;;2.45;1.30;;;15.70;99.90;;;;;;5066419;28;20123;-70
2023/09/10 05:13:28;;;;;;;3.20;2.08;;;15.70;99.90;;;;;;5059758;28;20449;-70
2023/09/10 05:15:54;;;;;;;2.42;1.38;;;15.70;99.90;;;;;;5066070;28;20033;-70
2023/09/10 05:18:21;;;;;;;2.10;1.63;;;15.70;99.90;;;;;;5059988;28;20529;-70
2023/09/10 05:20:52;;;;;;;2.20;1.33;;;15.70;99.90;;;;;;5065216;28;20063;-70
2023/09/10 05:23:21;;;;;;;1.65;0.98;;;15.70;99.90;;;;;;5058033;28;20112;-70
2023/09/10 05:25:47;;;;;;;2.40;1.05;;;15.70;99.90;;;;;;5093058;28;20431;-70
2023/09/10 05:28:13;;;;;;;2.60;1.58;;;15.80;99.90;;;;;;5064162;28;20033;-70
2023/09/10 05:30:39;;;;;;;6.03;1.80;;;15.80;99.90;;;;;;5064549;28;20036;-70
2023/09/10 05:33:04;;;;;;;7.20;2.35;;;15.80;99.90;;;;;;5047449;28;20053;-70
2023/09/10 05:35:30;;;;;;;2.83;1.42;;;15.90;99.90;;;;;;5061086;28;20460;-70
2023/09/10 05:37:56;;;;;;;2.80;1.60;;;15.90;99.90;;;;;;5057469;28;20532;-70
2023/09/10 05:40:22;;;;;;;4.65;1.88;;;15.90;99.90;;;;;;5061282;28;20096;-70
2023/09/10 05:42:48;;;;;;;4.65;1.42;;;16.00;99.90;;;;;;5056836;28;20053;-70
2023/09/10 05:45:14;;;;;;;3.17;1.30;;;16.00;99.90;;;;;;5058979;28;20041;-70
2023/09/10 05:47:39;;;;;;;2.58;1.67;;;16.00;99.90;;;;;;5097076;28;20105;-70
2023/09/10 05:50:05;;;;;;;3.92;1.55;;;16.10;99.90;;;;;;5054877;28;20124;-70
2023/09/10 05:52:31;;;;;;;2.00;1.13;;;16.20;99.90;;;;;;5059274;28;20112;-70
2023/09/10 05:54:57;;;;;;;2.30;1.75;;;16.20;99.90;;;;;;5088485;28;20532;-70
2023/09/10 05:57:23;;;;;;;3.05;1.50;;;16.30;99.90;;;;;;5061845;28;20044;-71
2023/09/10 05:59:49;;;;;;;3.10;1.73;;;16.30;99.90;;;;;;5045205;28;20105;-70
2023/09/10 06:02:15;;;;;;;3.30;2.00;;;16.40;99.90;;;;;;5058366;28;20037;-70
2023/09/10 06:04:41;;;;;;;5.63;2.17;;;16.50;99.90;;;;;;5057890;28;20040;-70
2023/09/10 06:07:06;;;;;;;3.63;1.90;;;16.60;99.90;;;;;;5073899;28;20465;-70
2023/09/10 06:09:32;;;;;;;3.20;1.60;;;16.70;99.90;;;;;;5056912;28;20044;-70
2023/09/10 06:11:59;;;;;;;2.60;1.83;;;16.70;99.90;;;;;;5046503;28;20040;-70
2023/09/10 06:14:25;;;;;;;4.43;2.13;;;16.90;99.90;;;;;;5061612;28;20044;-71
2023/09/10 06:16:51;;;;;;;4.88;2.17;;;16.90;99.90;;;;;;5060029;28;20040;-70
2023/09/10 06:19:17;;;;;;;6.53;2.70;;;17.00;99.90;;;;;;5056144;28;20134;-70
2023/09/10 06:21:42;;;;;;;3.38;2.05;;;17.20;99.90;;;;;;5057510;28;20439;-70
2023/09/10 06:24:08;;;;;;;3.03;1.73;;;17.30;99.90;;;;;;5063160;28;20047;-71
2023/09/10 06:26:34;;;;;;;5.95;2.38;;;17.30;99.90;;;;;;5058111;28;20041;-70
2023/09/10 06:29:00;;;;;;;5.50;2.58;;;17.40;99.90;;;;;;5050946;28;20064;-70
2023/09/10 06:31:26;;;;;;;4.43;2.45;;;17.40;99.90;;;;;;5055679;28;20151;-70
2023/09/10 06:33:54;;;;;;;4.05;2.67;;;17.50;99.90;;;;;;5061633;28;20119;-70
2023/09/10 06:36:20;;;;;;;3.38;2.15;;;17.60;99.90;;;;;;5058821;28;20079;-71
2023/09/10 06:38:49;;;;;;;3.70;2.15;;;17.70;99.90;;;;;;5056832;28;20041;-71
2023/09/10 06:41:15;;;;;;;3.55;2.05;;;17.80;99.90;;;;;;5057146;28;20124;-70
2023/09/10 06:43:41;;;;;;;4.07;1.88;;;17.90;99.90;;;;;;5058260;28;20053;-71
2023/09/10 06:46:07;;;;;;;3.53;2.30;;;18.00;99.90;;;;;;5044248;28;20087;-70
2023/09/10 06:48:33;;;;;;;3.78;2.45;;;18.10;99.90;;;;;;5061132;28;20453;-71
2023/09/10 06:51:00;;;;;;;3.28;1.88;;;18.20;99.90;;;;;;5055684;28;20041;-70
2023/09/10 06:53:30;;;;;;;3.45;2.08;;;18.40;99.90;;;;;;5058838;28;20044;-70
2023/09/10 06:55:59;;;;;;;3.47;1.70;;;18.50;99.90;;;;;;5055821;28;21013;-71
2023/09/10 06:58:24;;;;;;;4.85;2.67;;;18.60;99.90;;;;;;5055862;28;20422;-70
2023/09/10 07:00:50;;;;;;;3.47;2.03;;;18.70;99.90;;;;;;5076324;28;20044;-70
2023/09/10 07:03:16;;;;;;;4.28;2.38;;;18.90;99.90;;;;;;5057236;28;20071;-70
2023/09/10 07:05:43;;;;;;;3.83;2.17;;;19.00;99.90;;;;;;5054653;28;20081;-70
2023/09/10 07:08:12;;;;;;;3.72;2.15;;;19.10;99.90;;;;;;5059942;28;20093;-70
2023/09/10 07:10:39;;;;;;;4.47;2.00;;;19.30;99.90;;;;;;5058839;28;20048;-71
2023/09/10 07:13:05;;;;;;;2.83;2.20;;;19.50;99.90;;;;;;5062342;28;20044;-71
2023/09/10 07:15:32;;;;;;;5.07;2.72;;;19.60;99.90;;;;;;5093622;28;20120;-70
2023/09/10 07:17:58;;;;;;;3.40;2.00;;;19.80;99.90;;;;;;5090255;28;20040;-70
2023/09/10 07:20:23;;;;;;;3.72;2.00;;;19.90;99.90;;;;;;5061539;28;20137;-71
2023/09/10 07:22:49;;;;;;;3.13;2.00;;;20.10;99.90;;;;;;5059351;28;20040;-70
2023/09/10 07:25:15;;;;;;;4.10;2.50;;;20.20;99.90;;;;;;5062050;28;20033;-71
2023/09/10 07:27:40;;;;;;;4.63;2.63;;;20.30;99.90;;;;;;5059581;28;20036;-71
2023/09/10 07:30:07;;;;;;;4.15;2.53;;;20.50;99.90;;;;;;5077984;28;20037;-71
2023/09/10 07:32:32;;;;;;;4.22;2.50;;;20.70;99.90;;;;;;5094588;28;20109;-71
2023/09/10 07:34:58;;;;;;;4.65;2.60;;;20.90;99.90;;;;;;5083706;28;20037;-71
2023/09/10 07:37:24;;;;;;;4.35;2.50;;;21.10;99.90;;;;;;5062492;28;20112;-71
2023/09/10 07:39:50;;;;;;;4.70;2.70;;;21.30;99.90;;;;;;5046279;28;20135;-71
2023/09/10 07:42:16;;;;;;;4.20;2.63;;;21.40;99.90;;;;;;5043025;28;20062;-71
2023/09/10 07:44:42;;;;;;;5.22;2.40;;;21.60;99.90;;;;;;5066048;28;20044;-71
2023/09/10 07:47:11;;;;;;;3.80;2.38;;;21.70;99.90;;;;;;5057774;28;20048;-71
2023/09/10 07:49:36;;;;;;;3.47;2.40;;;22.00;99.90;;;;;;5047598;28;20041;-71
2023/09/10 07:52:04;;;;;;;4.05;2.65;;;22.20;99.90;;;;;;5054957;28;20032;-71
2023/09/10 07:54:30;;;;;;;5.15;2.30;;;22.30;99.90;;;;;;5056340;28;20059;-71
2023/09/10 07:56:56;;;;;;;5.93;2.50;;;22.50;99.90;;;;;;5061979;28;20074;-71
2023/09/10 07:59:22;;;;;;;4.35;2.70;;;22.60;99.90;;;;;;5061695;28;20045;-70
2023/09/10 08:01:48;;;;;;;4.32;2.92;;;22.70;99.90;;;;;;5058349;28;20048;-71
2023/09/10 08:04:13;;;;;;;3.95;2.20;;;22.80;99.90;;;;;;5060012;28;20122;-71
2023/09/10 08:06:39;;;;;;;3.72;2.50;;;23.00;99.90;;;;;;5059247;28;20041;-70
2023/09/10 08:09:05;;;;;;;3.50;3.15;;;23.40;99.90;;;;;;5090017;28;20072;-70
2023/09/10 08:11:31;;;;;;;3.03;2.13;;;23.90;99.90;;;;;;5061139;28;20040;-70
2023/09/10 08:13:57;;;;;;;4.65;2.70;;;24.50;99.90;;;;;;5046500;28;20133;-70
2023/09/10 08:16:23;;;;;;;4.15;2.38;;;25.20;99.90;;;;;;5055680;28;20032;-70
2023/09/10 08:18:49;;;;;;;3.08;2.15;;;25.90;99.90;;;;;;5055907;28;20071;-70
2023/09/10 08:21:14;;;;;;;5.82;2.28;;;26.40;99.90;;;;;;5062218;28;20094;-70
2023/09/10 08:23:41;;;;;;;5.38;2.17;;;26.70;99.90;;;;;;5060001;28;20128;-70
2023/09/10 08:26:07;;;;;;;4.05;2.60;;;27.30;99.90;;;;;;5054002;28;20087;-71
2023/09/10 08:28:33;;;;;;;2.88;1.83;;;27.70;99.90;;;;;;5059353;28;20503;-71
2023/09/10 08:30:58;;;;;;;4.13;2.05;;;27.90;99.90;;;;;;5054033;28;20063;-71
2023/09/10 08:33:27;;;;;;;3.78;2.03;;;27.90;99.90;;;;;;5056183;28;20047;-71
2023/09/10 08:35:54;;;;;;;3.55;1.95;;;28.10;99.90;;;;;;5056137;28;20068;-71
2023/09/10 08:38:21;;;;;;;2.63;1.80;;;28.40;99.90;;;;;;5055270;28;20053;-71
2023/09/10 08:40:53;;;;;;;2.85;2.03;;;28.70;99.90;;;;;;5060531;28;20047;-71
2023/09/10 08:43:23;;;;;;;2.55;1.65;;;29.10;99.90;;;;;;5055430;28;20057;-71
2023/09/10 08:45:50;;;;;;;4.00;2.22;;;29.30;99.90;;;;;;5057100;28;20051;-71
2023/09/10 08:48:18;;;;;;;2.30;1.48;;;29.60;99.90;;;;;;5060325;28;20115;-71
2023/09/10 08:50:46;;;;;;;3.03;1.40;;;29.70;99.90;;;;;;5057573;28;20044;-71
2023/09/10 08:53:14;;;;;;;2.50;1.50;;;29.80;99.90;;;;;;5037744;28;20069;-71
2023/09/10 08:55:44;;;;;;;2.95;1.38;;;29.80;99.90;;;;;;5059420;28;20079;-71
2023/09/10 08:58:14;;;;;;;4.40;1.55;;;30.10;99.90;;;;;;5056268;28;20086;-70
2023/09/10 09:00:40;;;;;;;2.42;1.20;;;30.40;99.90;;;;;;5055342;28;20045;-71
2023/09/10 09:03:06;;;;;;;1.60;0.90;;;30.70;99.90;;;;;;5057079;28;20186;-71
2023/09/10 09:05:34;;;;;;;3.53;1.25;;;31.10;99.90;;;;;;5061273;28;20065;-71
2023/09/10 09:08:10;;;;;;;2.95;1.42;;;31.10;99.90;;;;;;5058109;28;20052;-71
2023/09/10 09:10:36;;;;;;;2.13;1.27;;;31.20;99.90;;;;;;5089831;28;20040;-71
2023/09/10 09:13:07;;;;;;;2.67;1.15;;;31.20;99.90;;;;;;5060861;28;20052;-71
2023/09/10 09:15:34;;;;;;;1.70;0.98;;;31.20;99.90;;;;;;5058581;28;20501;-71
2023/09/10 09:18:01;;;;;;;1.73;0.80;;;31.30;99.90;;;;;;5062985;28;20060;-71
2023/09/10 09:20:30;;;;;;;1.80;1.02;;;31.30;99.90;;;;;;5036883;28;20405;-70
2023/09/10 09:23:03;;;;;;;2.10;1.00;;;31.40;99.90;;;;;;5059951;28;20036;-70
2023/09/10 09:25:28;;;;;;;2.55;1.23;;;31.60;99.90;;;;;;5042057;28;20037;-70
2023/09/10 09:27:56;;;;;;;1.23;0.68;;;31.60;99.90;;;;;;5060810;28;20413;-71
2023/09/10 09:30:21;;;;;;;1.88;1.05;;;31.70;99.70;;;;;;5055321;28;20040;-71
2023/09/10 09:32:49;;;;;;;1.55;1.00;;;31.80;99.90;;;;;;5057556;28;20043;-71
2023/09/10 09:35:14;;;;;;;1.52;0.77;;;32.00;99.30;;;;;;5093994;28;20048;-71
2023/09/10 09:37:41;;;;;;;3.10;0.82;;;32.20;99.90;;;;;;5061218;28;20045;-71
2023/09/10 09:40:09;;;;;;;1.33;0.88;;;32.20;99.90;;;;;;5058191;28;20051;-71
2023/09/10 09:42:38;;;;;;;1.00;0.90;;;32.10;99.90;;;;;;5056485;28;20080;-70
2023/09/10 09:45:05;;;;;;;3.22;1.00;;;32.00;94.50;;;;;;5043531;28;20118;-71
2023/09/10 09:47:32;;;;;;;1.23;0.63;;;32.00;98.50;;;;;;5062796;28;20037;-71
2023/09/10 09:49:58;;;;;;;1.00;0.63;;;31.90;92.30;;;;;;5056831;28;20044;-71
2023/09/10 09:52:24;;;;;;;1.58;1.00;;;31.80;95.00;;;;;;5056197;28;20189;-71
2023/09/10 09:54:50;;;;;;;1.08;0.80;;;31.90;94.80;;;;;;5043375;28;20040;-70
2023/09/10 09:57:19;;;;;;;1.38;0.73;;;32.10;96.40;;;;;;5052502;28;20103;-71
2023/09/10 09:59:44;;;;;;;2.10;1.10;;;32.20;96.90;;;;;;5058017;28;20391;-71
2023/09/10 10:02:15;;;;;;;1.58;0.77;;;31.90;94.10;;;;;;5058031;28;20127;-71
2023/09/10 10:04:43;;;;;;;1.30;0.77;;;31.90;97.70;;;;;;5058913;28;20515;-70
2023/09/10 10:07:13;;;;;;;1.38;0.80;;;31.90;95.70;;;;;;5059974;28;20111;-71
2023/09/10 10:09:41;;;;;;;1.98;0.90;;;32.00;97.30;;;;;;5093593;28;20047;-71
2023/09/10 10:12:07;;;;;;;1.77;0.70;;;32.20;96.50;;;;;;5060166;28;20044;-71
2023/09/10 10:14:34;;;;;;;2.20;1.00;;;32.30;95.80;;;;;;5055836;28;20049;-71
2023/09/10 10:17:02;;;;;;;1.33;0.60;;;32.50;94.40;;;;;;5069219;28;20056;-71
2023/09/10 10:19:30;;;;;;;1.65;0.50;;;32.60;96.00;;;;;;5090075;28;20482;-70
2023/09/10 10:21:56;;;;;;;0.80;0.50;;;32.70;95.90;;;;;;5054854;28;20349;-71
2023/09/10 10:24:23;;;;;;;1.58;0.77;;;32.70;91.40;;;;;;5088676;28;20566;-71
2023/09/10 10:26:51;;;;;;;0.98;0.50;;;32.90;92.30;;;;;;5062713;28;20048;-71
2023/09/10 10:29:21;;;;;;;1.35;0.85;;;33.20;93.80;;;;;;5057119;28;20076;-71
2023/09/10 10:32:04;;;;;;;1.60;0.90;;;32.90;92.70;;;;;;5059895;28;20428;-71
2023/09/10 10:34:39;;;;;;;1.50;0.70;;;32.80;91.60;;;;;;5089788;28;20051;-71
2023/09/10 10:37:11;;;;;;;2.17;0.93;;;32.70;88.30;;;;;;5041142;28;20040;-71
2023/09/10 10:39:45;;;;;;;1.13;0.57;;;32.70;91.20;;;;;;5057197;28;20045;-71
2023/09/10 10:42:15;;;;;;;2.38;1.00;;;32.60;88.00;;;;;;5061540;28;20048;-70
2023/09/10 10:44:42;;;;;;;1.33;0.52;;;32.50;86.70;;;;;;5056859;28;20037;-70
2023/09/10 10:47:13;;;;;;;1.05;0.70;;;32.40;91.70;;;;;;5055501;28;20052;-70
2023/09/10 10:49:47;;;;;;;1.65;0.95;;;32.30;89.80;;;;;;5055402;28;20121;-70
2023/09/10 10:52:14;;;;;;;0.90;0.40;;;32.20;92.00;;;;;;5059004;28;20041;-70
2023/09/10 10:54:42;;;;;;;0.90;0.57;;;32.00;91.10;;;;;;5058610;28;20134;-70
2023/09/10 10:57:09;;;;;;;2.08;1.02;;;32.00;91.00;;;;;;5058886;28;20119;-70
2023/09/10 10:59:35;;;;;;;1.35;0.60;;;32.00;89.10;;;;;;5060074;28;20040;-70
2023/09/10 11:02:22;;;;;;;0.68;0.52;;;31.80;87.90;;;;;;5055336;28;20053;-69
2023/09/10 11:05:00;;;;;;;3.47;1.25;;;31.90;88.60;;;;;;5060626;28;20067;-70
2023/09/10 11:07:29;;;;;;;1.20;0.38;;;32.00;90.00;;;;;;5059667;28;20033;-70
2023/09/10 11:10:18;;;;;;;0.85;0.40;;;32.20;90.80;;;;;;5056392;28;20071;-70
2023/09/10 11:13:10;;;;;;;2.20;1.17;;;32.30;91.00;;;;;;5054767;28;20119;-70
2023/09/10 11:15:56;;;;;;;0.75;0.47;;;32.30;89.40;;;;;;5051814;28;20140;-70
2023/09/10 11:18:37;;;;;;;0.88;0.45;;;32.50;90.30;;;;;;5088752;28;20037;-69
2023/09/10 11:21:05;;;;;;;0.88;0.50;;;32.60;85.50;;;;;;5058130;28;20094;-70
2023/09/10 11:23:31;;;;;;;1.35;0.57;;;32.80;82.80;;;;;;5056987;28;20045;-70
2023/09/10 11:26:17;;;;;;;1.90;0.60;;;33.00;87.50;;;;;;5056138;28;20381;-70
2023/09/10 11:28:43;;;;;;;0.80;0.30;;;33.50;83.60;;;;;;5053768;28;20091;-70
2023/09/10 11:31:37;;;;;;;0.80;0.52;;;33.70;86.40;;;;;;5057718;28;20064;-70
2023/09/10 11:34:15;;;;;;;1.75;0.77;;;34.00;83.30;;;;;;5053909;28;20052;-70
2023/09/10 11:36:54;;;;;;;0.60;0.38;;;34.30;82.50;;;;;;5057406;28;20052;-70
2023/09/10 11:39:21;;;;;;;1.35;0.55;;;34.60;78.40;;;;;;5059292;28;20530;-70
2023/09/10 11:41:52;;;;;;;0.50;0.40;;;34.40;79.30;;;;;;5054595;28;20135;-69
2023/09/10 11:44:18;;;;;;;0.47;0.30;;;34.40;80.60;;;;;;5051330;28;20059;-70
2023/09/10 11:46:44;;;;;;;0.57;0.30;;;34.50;82.80;;;;;;5055575;28;20041;-70
2023/09/10 11:49:10;;;;;;;5.95;0.85;;;34.40;78.00;;;;;;5055787;28;20039;-71
2023/09/10 11:51:49;;;;;;;2.30;0.75;;;34.10;78.90;;;;;;5054323;28;20060;-70
2023/09/10 11:54:16;;;;;;;2.00;0.70;;;34.10;78.00;;;;;;5053075;28;20072;-70
2023/09/10 11:56:55;;;;;;;0.80;0.50;;;34.10;79.30;;;;;;5087841;28;20455;-70
2023/09/10 11:59:25;;;;;;;1.30;0.68;;;34.30;79.30;;;;;;5054865;28;20167;-70
2023/09/10 12:01:55;;;;;;;0.88;0.43;;;34.50;76.90;;;;;;5051512;28;20056;-71
2023/09/10 12:04:29;;;;;;;1.50;0.73;;;34.70;76.50;;;;;;5059145;28;20077;-70
2023/09/10 12:06:54;;;;;;;0.90;0.50;;;34.80;77.90;;;;;;5092308;28;20094;-70
2023/09/10 12:09:20;;;;;;;0.77;0.35;;;34.80;75.00;;;;;;5056507;28;20532;-71
2023/09/10 12:11:47;;;;;;;1.10;0.60;;;34.60;74.40;;;;;;5061025;28;20371;-70
2023/09/10 12:14:13;;;;;;;0.55;0.50;;;34.50;73.60;;;;;;5058041;28;20075;-70
2023/09/10 12:16:39;;;;;;;2.17;0.60;;;34.40;74.20;;;;;;5061068;28;20630;-70
2023/09/10 12:19:07;;;;;;;0.57;0.30;;;34.00;72.70;;;;;;5058800;28;20036;-70
2023/09/10 12:21:32;;;;;;;0.85;0.50;;;34.20;76.10;;;;;;5055834;28;20507;-70
2023/09/10 12:23:58;;;;;;;0.75;0.40;;;34.40;74.90;;;;;;5091642;28;20127;-72
2023/09/10 12:26:24;;;;;;;0.82;0.57;;;34.60;73.90;;;;;;5044051;28;20130;-73
2023/09/10 12:28:50;;;;;;;1.25;0.50;;;34.60;73.50;;;;;;5052818;28;20033;-71
2023/09/10 12:31:16;;;;;;;1.45;0.40;;;34.50;73.20;;;;;;5052798;28;20060;-71
2023/09/10 12:33:41;;;;;;;0.98;0.40;;;34.60;75.30;;;;;;5059642;28;20543;-71
2023/09/10 12:36:07;;;;;;;0.50;0.40;;;34.90;74.40;;;;;;5054113;28;20124;-70
2023/09/10 12:38:33;;;;;;;1.58;0.45;;;34.80;73.10;;;;;;5055909;28;20198;-71
2023/09/10 12:40:59;;;;;;;0.80;0.47;;;34.90;71.40;;;;;;5049416;28;20043;-71
2023/09/10 12:43:25;;;;;;;1.88;0.60;;;34.70;70.60;;;;;;5056109;28;20053;-71
2023/09/10 12:45:51;;;;;;;1.92;0.88;;;34.50;70.50;;;;;;5058330;28;20087;-71
2023/09/10 12:48:18;;;;;;;0.95;0.40;;;34.30;71.40;;;;;;5059754;28;20037;-71
2023/09/10 12:50:44;;;;;;;1.20;0.68;;;34.30;72.10;;;;;;5058201;28;20479;-71